Monday, November 20, 2017, 4:09 AM EST

KMDT, Harrisburg International Airport

Location: Middletown, PA, United States Lat: 40.2
Local Time: 4:09 AM EST ( 9:09 GMT) Lon: -76.767
Time Zone: US/Eastern Elev: 308 ft

Show me the last for .
Show Decoded

2017-11-20 02:56 METAR KMDT 200756Z 29013G22KT 10SM SCT050 03/M05 A2999 RMK AO2 SLP157 T00331050
                 =
2017-11-20 01:56 METAR KMDT 200656Z 30014KT 10SM SCT060 03/M04 A2995 RMK AO2 SLP146 T00331039 =
2017-11-20 00:56 METAR KMDT 200556Z 28014KT 10SM SCT048 04/M03 A2993 RMK AO2 PK WND 32026/0508
                 SLP137 T00391028 10056 20033 51020 =
2017-11-19 23:56 METAR KMDT 200456Z 30016G21KT 10SM FEW048 FEW080 04/M03 A2991 RMK AO2 PK WND
                 30026/0428 SLP129 T00391033 401500033 =
2017-11-19 22:56 METAR KMDT 200356Z 29018G29KT 10SM SCT048 SCT055 BKN080 04/M02 A2989 RMK AO2 PK
                 WND 30029/0350 SLP124 T00441017 =
2017-11-19 21:56 METAR KMDT 200256Z 31007KT 10SM BKN050 BKN090 04/M03 A2987 RMK AO2 SLP116
                 T00441028 53020 =
2017-11-19 20:56 METAR KMDT 200156Z 29006KT 10SM SCT090 04/M03 A2984 RMK AO2 SLP108 T00441033 =
2017-11-19 19:56 METAR KMDT 200056Z 27006KT 10SM SCT075 BKN180 05/M03 A2983 RMK AO2 SLP102
                 T00501033 =
2017-11-19 18:56 METAR KMDT 192356Z 30012KT 10SM BKN075 06/M03 A2981 RMK AO2 SLP096 60000
                 T00561033 10094 20050 51029 =
2017-11-19 17:56 METAR KMDT 192256Z 29017G26KT 10SM FEW045 SCT060 BKN070 06/M02 A2978 RMK AO2 PK
                 WND 28030/2228 RAE11 SLP087 P0000 T00561017 =
2017-11-19 16:56 METAR KMDT 192156Z 29016G25KT 10SM -RA BKN047 BKN060 07/M01 A2975 RMK AO2 RAB47
                 SLP076 P0000 T00671011 =
2017-11-19 15:56 METAR KMDT 192056Z 29012G24KT 10SM SCT060 BKN070 07/M02 A2972 RMK AO2 SLP065
                 T00721017 53019 =
2017-11-19 14:56 METAR KMDT 191956Z 29015KT 10SM BKN060 08/M02 A2970 RMK AO2 PK WND 30029/1857
                 SLP057 T00781017 =
2017-11-19 13:56 METAR KMDT 191856Z 30023G28KT 10SM BKN055 08/M02 A2969 RMK AO2 PK WND 28030/1829
                 SLP053 T00831017 =
2017-11-19 12:56 METAR KMDT 191756Z 31019G28KT 10SM BKN055 09/M02 A2966 RMK AO2 PK WND 29032/1716
                 SLP046 T00891022 10100 20078 51022 =
2017-11-19 11:56 METAR KMDT 191656Z 30019G29KT 10SM BKN050 10/00 A2965 RMK AO2 PK WND 28036/1617
                 SLP041 T01000000 =
2017-11-19 10:56 METAR KMDT 191556Z 29025G36KT 10SM BKN047 10/01 A2963 RMK AO2 PK WND 29036/1556
                 SLP034 T01000006 =
2017-11-19 09:56 METAR KMDT 191456Z 30018G30KT 10SM SCT040 BKN050 08/02 A2960 RMK AO2 PK WND
                 30033/1420 SLP025 T00830017 51042 =
2017-11-19 08:56 METAR KMDT 191356Z 29019G31KT 10SM BKN043 08/02 A2957 RMK AO2 PK WND 29034/1324
                 SLP015 T00830022 =
2017-11-19 07:56 METAR KMDT 191256Z 28021G30KT 10SM SCT041 BKN049 BKN190 08/02 A2952 RMK AO2 PK
                 WND 28030/1253 SLP998 T00780022 =
2017-11-19 06:56 METAR KMDT 191156Z 29020G31KT 10SM SCT050 SCT140 BKN190 08/02 A2947 RMK AO2 PK
                 WND 30031/1149 PRESRR SLP982 60001 70120 T00830017 10150 20083 51081 =
2017-11-19 05:56 METAR KMDT 191056Z 28020G28KT 10SM BKN045 09/02 A2941 RMK AO2 PK WND 29038/1002
                 SLP961 T00890022 =
2017-11-19 04:56 METAR KMDT 190956Z 28029G42KT 10SM FEW038 FEW049 SCT060 11/05 A2931 RMK AO2 PK
                 WND 27042/0950 WSHFT 0906 RAB07E25 SLP928 P0000 T01110050 =
2017-11-19 04:26 METAR KMDT 190926Z 28020G32KT 10SM FEW023 BKN037 OVC045 13/10 A2928 RMK AO2 PK
                 WND 27032/0922 WSHFT 0906 RAB07E25 P0000 T01330100 =

Support USWX by starting your Amazon purchase here.